createdAt,value
2019-03-06T00:01:41.390Z,98150.47
2019-03-06T00:04:10.943Z,98153.13
2019-03-06T00:06:59.798Z,98149.53
2019-03-06T00:09:29.261Z,98152.21
2019-03-06T00:11:58.714Z,98152.39
2019-03-06T00:14:28.235Z,98151.08
2019-03-06T00:16:57.969Z,98152.02
2019-03-06T00:19:27.528Z,98155.20
2019-03-06T00:22:00.251Z,98151.77
2019-03-06T00:24:38.534Z,98149.68
2019-03-06T00:27:08.230Z,98149.27
2019-03-06T00:29:37.691Z,98148.60
2019-03-06T00:32:07.147Z,98146.30
2019-03-06T00:34:36.657Z,98137.08
2019-03-06T00:37:06.151Z,98132.48
2019-03-06T00:39:37.216Z,98126.68
2019-03-06T00:42:06.701Z,98132.28
2019-03-06T00:44:36.186Z,98132.84
2019-03-06T00:47:05.833Z,98131.21
2019-03-06T00:49:36.200Z,98120.09
2019-03-06T00:52:07.315Z,98115.86
2019-03-06T00:54:38.284Z,98111.27
2019-03-06T00:57:07.760Z,98107.19
2019-03-06T00:59:37.230Z,98107.12
2019-03-06T01:02:08.992Z,98105.47
2019-03-06T01:04:38.707Z,98107.27
2019-03-06T01:07:11.132Z,98099.48
2019-03-06T01:09:40.618Z,98094.23
2019-03-06T01:12:10.371Z,98091.05
2019-03-06T01:14:39.821Z,98087.28
2019-03-06T01:17:28.612Z,98092.85
2019-03-06T01:19:58.096Z,98077.61
2019-03-06T01:22:27.632Z,98075.31
2019-03-06T01:24:57.279Z,98077.65
2019-03-06T01:27:26.753Z,98075.27
2019-03-06T01:29:56.233Z,98071.83
2019-03-06T01:32:26.317Z,98073.58
2019-03-06T01:34:57.434Z,98070.00
2019-03-06T01:37:34.561Z,98070.84
2019-03-06T01:40:08.341Z,98067.59
2019-03-06T01:42:39.736Z,98061.80
2019-03-06T01:45:10.528Z,98049.08
2019-03-06T01:47:41.540Z,98052.58
2019-03-06T01:50:12.436Z,98063.50
2019-03-06T01:52:42.005Z,98063.72
2019-03-06T01:55:14.068Z,98051.70
2019-03-06T01:57:43.660Z,98048.83
2019-03-06T02:00:17.038Z,98034.82
2019-03-06T02:02:47.010Z,98026.52
2019-03-06T02:05:17.016Z,98038.38
2019-03-06T02:07:48.150Z,98037.98
2019-03-06T02:10:17.841Z,98037.86
2019-03-06T02:12:48.861Z,98044.44
2019-03-06T02:15:21.250Z,98036.04
2019-03-06T02:17:50.776Z,98028.88
2019-03-06T02:20:20.552Z,98022.64
2019-03-06T02:22:50.013Z,98011.42
2019-03-06T02:25:19.549Z,98014.34
2019-03-06T02:27:49.410Z,98010.80
2019-03-06T02:30:22.869Z,98010.84
2019-03-06T02:32:52.576Z,98003.94
2019-03-06T02:35:22.081Z,97996.64
2019-03-06T02:37:51.530Z,97989.81
2019-03-06T02:40:21.098Z,97994.66
2019-03-06T02:42:50.587Z,97992.61
2019-03-06T02:45:21.785Z,97989.13
2019-03-06T02:47:51.353Z,97988.58
2019-03-06T02:50:23.792Z,97985.28
2019-03-06T02:52:53.258Z,97994.23
2019-03-06T02:55:23.469Z,97982.75
2019-03-06T02:57:54.557Z,97978.53
2019-03-06T03:00:26.280Z,97980.95
2019-03-06T03:02:57.429Z,97969.27
2019-03-06T03:05:28.648Z,97966.95
2019-03-06T03:07:58.104Z,97974.34
2019-03-06T03:10:27.634Z,97971.76
2019-03-06T03:12:58.824Z,97962.86
2019-03-06T03:15:28.358Z,97968.98
2019-03-06T03:17:59.412Z,97968.05
2019-03-06T03:20:28.910Z,97959.58
2019-03-06T03:22:58.576Z,97964.18
2019-03-06T03:25:28.457Z,97960.30
2019-03-06T03:27:57.969Z,97950.97
2019-03-06T03:30:27.417Z,97944.74
2019-03-06T03:32:56.903Z,97942.92
2019-03-06T03:35:26.659Z,97942.41
2019-03-06T03:37:56.584Z,97940.48
2019-03-06T03:40:26.050Z,97939.53
2019-03-06T03:42:55.608Z,97930.53
2019-03-06T03:45:25.242Z,97926.38
2019-03-06T03:47:54.810Z,97929.27
2019-03-06T03:50:25.228Z,97922.17
2019-03-06T03:53:07.086Z,97920.91
2019-03-06T03:55:36.808Z,97910.55
2019-03-06T03:58:06.307Z,97912.91
2019-03-06T04:00:39.280Z,97920.85
2019-03-06T04:03:08.802Z,97919.98
2019-03-06T04:05:38.328Z,97915.98
2019-03-06T04:08:27.151Z,97828.41
2019-03-06T04:10:58.121Z,97928.69
2019-03-06T04:13:27.585Z,97934.38
2019-03-06T04:15:57.112Z,97934.19
2019-03-06T04:18:26.599Z,97935.33
2019-03-06T04:20:57.561Z,97933.25
2019-03-06T04:23:27.266Z,97933.09
2019-03-06T04:25:56.733Z,97919.64
2019-03-06T04:28:28.033Z,97910.77
2019-03-06T04:30:57.604Z,97901.79
2019-03-06T04:33:27.130Z,97896.59
2019-03-06T04:35:56.613Z,97902.23
2019-03-06T04:38:26.231Z,97900.19
2019-03-06T04:40:55.705Z,97892.98
2019-03-06T04:43:25.182Z,97884.80
2019-03-06T04:45:55.944Z,97874.36
2019-03-06T04:48:25.429Z,97880.50
2019-03-06T04:50:55.236Z,97884.13
2019-03-06T04:53:24.902Z,97871.62
2019-03-06T04:55:54.364Z,97879.30
2019-03-06T04:58:24.011Z,97869.94
2019-03-06T05:00:53.551Z,97869.16
2019-03-06T05:03:23.030Z,97869.24
2019-03-06T05:05:52.502Z,97862.88
2019-03-06T05:08:21.971Z,97867.17
2019-03-06T05:10:51.459Z,97874.63
2019-03-06T05:13:20.935Z,97864.34
2019-03-06T05:15:50.872Z,97863.89
2019-03-06T05:18:21.960Z,97863.33
2019-03-06T05:20:51.408Z,97861.29
2019-03-06T05:23:20.930Z,97858.80
2019-03-06T05:25:50.399Z,97849.56
2019-03-06T05:28:21.557Z,97839.75
2019-03-06T05:30:51.073Z,97846.81
2019-03-06T05:33:20.574Z,97832.66
2019-03-06T05:35:54.936Z,97828.39
2019-03-06T05:38:29.002Z,97823.93
2019-03-06T05:40:58.509Z,97817.00
2019-03-06T05:43:27.968Z,97814.21
2019-03-06T05:45:57.440Z,97817.27
2019-03-06T05:48:46.245Z,97819.45
2019-03-06T05:51:15.911Z,97816.52
2019-03-06T05:53:45.378Z,97796.55
2019-03-06T05:56:14.844Z,97801.43
2019-03-06T05:58:44.369Z,97802.15
2019-03-06T06:01:13.827Z,97800.98
2019-03-06T06:03:43.307Z,97788.44
2019-03-06T06:06:12.790Z,97788.55
2019-03-06T06:08:42.244Z,97782.33
2019-03-06T06:11:11.710Z,97783.17
2019-03-06T06:13:41.221Z,97777.48
2019-03-06T06:16:10.752Z,97761.97
2019-03-06T06:18:40.234Z,97764.91
2019-03-06T06:21:11.355Z,97769.34
2019-03-06T06:23:42.511Z,97769.69
2019-03-06T06:26:11.993Z,97764.55
2019-03-06T06:28:41.496Z,97763.84
2019-03-06T06:31:11.131Z,97764.41
2019-03-06T06:33:40.609Z,97766.27
2019-03-06T06:36:10.280Z,97759.25
2019-03-06T06:38:39.761Z,97754.38
2019-03-06T06:41:09.262Z,97750.77
2019-03-06T06:43:38.760Z,97749.71
2019-03-06T06:46:08.242Z,97748.07
2019-03-06T06:48:37.717Z,97747.19
2019-03-06T06:51:11.731Z,97730.85
2019-03-06T06:56:23.504Z,97727.91
2019-03-06T06:58:57.557Z,97723.77
2019-03-06T07:01:34.856Z,97718.36
2019-03-06T07:06:49.937Z,97712.38
2019-03-06T07:09:21.032Z,97710.61
2019-03-06T07:11:52.099Z,97702.16
2019-03-06T07:14:23.240Z,97699.69
2019-03-06T07:16:57.566Z,97696.95
2019-03-06T07:19:30.321Z,97697.84
2019-03-06T07:22:01.457Z,97698.56
2019-03-06T07:24:32.532Z,97692.44
2019-03-06T07:27:05.181Z,97695.98
2019-03-06T07:29:36.267Z,97685.91
2019-03-06T07:32:07.523Z,97682.15
2019-03-06T07:34:38.864Z,97680.73
2019-03-06T07:37:10.067Z,97677.53
2019-03-06T07:39:41.136Z,97676.73
2019-03-06T07:42:12.508Z,97677.48
2019-03-06T07:45:07.036Z,97675.69
2019-03-06T07:47:38.133Z,97673.80
2019-03-06T07:50:13.738Z,97667.41
2019-03-06T07:53:07.197Z,97666.19
2019-03-06T07:55:38.152Z,97669.38
2019-03-06T07:58:12.150Z,97663.54
2019-03-06T08:00:41.777Z,97665.16
2019-03-06T08:03:12.203Z,97669.98
2019-03-06T08:05:41.888Z,97661.39
2019-03-06T08:08:11.390Z,97658.14
2019-03-06T08:10:41.243Z,97656.59
2019-03-06T08:13:12.649Z,97639.22
2019-03-06T08:15:43.774Z,97637.58
2019-03-06T08:18:14.881Z,97637.81
2019-03-06T08:20:46.010Z,97635.80
2019-03-06T08:23:17.171Z,97629.61
2019-03-06T08:25:47.191Z,97637.63
2019-03-06T08:28:16.733Z,97632.30
2019-03-06T08:30:48.100Z,97632.99
2019-03-06T08:33:18.527Z,97621.52
2019-03-06T08:35:48.091Z,97609.70
2019-03-06T08:38:20.121Z,97603.91
2019-03-06T08:40:49.603Z,97600.56
2019-03-06T08:43:19.148Z,97601.73
2019-03-06T08:45:50.788Z,97592.73
2019-03-06T08:48:21.951Z,97588.23
2019-03-06T08:50:53.135Z,97588.85
2019-03-06T08:53:24.498Z,97586.13
2019-03-06T08:55:56.095Z,97578.59
2019-03-06T08:58:27.227Z,97560.87
2019-03-06T09:01:20.533Z,97556.08
2019-03-06T09:03:51.831Z,97540.11
2019-03-06T09:06:23.058Z,97557.25
2019-03-06T09:08:54.140Z,97541.97
2019-03-06T09:11:26.764Z,97538.73
2019-03-06T09:13:58.125Z,97540.23
2019-03-06T09:16:29.392Z,97538.31
2019-03-06T09:19:19.797Z,97536.53
2019-03-06T09:21:51.301Z,97530.83
2019-03-06T09:24:22.407Z,97540.74
2019-03-06T09:26:53.575Z,97532.08
2019-03-06T09:29:24.699Z,97517.23
2019-03-06T09:31:55.777Z,97510.73
2019-03-06T09:34:28.269Z,97511.56
2019-03-06T09:37:05.581Z,97503.04
2019-03-06T09:42:23.557Z,97486.58
2019-03-06T09:44:54.803Z,97474.70
2019-03-06T09:47:25.885Z,97479.42
2019-03-06T09:49:57.112Z,97473.62
2019-03-06T09:52:28.212Z,97466.55
2019-03-06T09:54:59.284Z,97470.04
2019-03-06T09:57:30.692Z,97462.10
2019-03-06T10:00:01.779Z,97444.83
2019-03-06T10:02:32.912Z,97471.41
2019-03-06T10:05:04.039Z,97461.77
2019-03-06T10:07:35.108Z,97449.06
2019-03-06T10:10:09.434Z,97450.23
2019-03-06T10:12:47.292Z,97459.12
2019-03-06T10:15:14.245Z,97444.92
2019-03-06T10:17:45.657Z,97433.33
2019-03-06T10:20:25.119Z,97431.87
2019-03-06T10:22:50.034Z,97436.19
2019-03-06T10:25:29.814Z,97438.55
2019-03-06T10:27:52.281Z,97423.06
2019-03-06T10:30:30.539Z,97408.53
2019-03-06T10:33:00.034Z,97420.97
2019-03-06T10:35:29.503Z,97407.09
2019-03-06T10:37:59.335Z,97400.55
2019-03-06T10:40:28.839Z,97392.15
2019-03-06T10:43:00.135Z,97387.03
2019-03-06T10:45:29.653Z,97379.16
2019-03-06T10:48:05.327Z,97373.50
2019-03-06T10:50:34.949Z,97369.26
2019-03-06T10:53:23.934Z,97367.25
2019-03-06T10:55:53.799Z,97373.84
2019-03-06T10:58:23.786Z,97381.59
2019-03-06T11:00:54.723Z,97371.23
2019-03-06T11:03:26.535Z,97381.50
2019-03-06T11:05:56.245Z,97367.62
2019-03-06T11:08:25.997Z,97367.38
2019-03-06T11:10:55.775Z,97370.30
2019-03-06T11:13:25.705Z,97374.34
2019-03-06T11:15:56.089Z,97380.06
2019-03-06T11:18:26.026Z,97366.81
2019-03-06T11:20:55.538Z,97368.40
2019-03-06T11:23:27.008Z,97364.12
2019-03-06T11:25:56.585Z,97363.42
2019-03-06T11:28:26.608Z,97355.83
2019-03-06T11:30:59.730Z,97349.49
2019-03-06T11:33:29.478Z,97353.89
2019-03-06T11:36:01.186Z,97341.03
2019-03-06T11:38:31.152Z,97346.13
2019-03-06T11:41:01.311Z,97343.09
2019-03-06T11:43:31.224Z,97328.94
2019-03-06T11:46:00.717Z,97322.02
2019-03-06T11:48:30.569Z,97314.48
2019-03-06T11:51:00.248Z,97319.20
2019-03-06T11:53:29.761Z,97311.48
2019-03-06T11:55:59.473Z,97308.08
2019-03-06T11:58:29.246Z,97306.98
2019-03-06T12:00:59.027Z,97294.67
2019-03-06T12:03:30.379Z,97281.98
2019-03-06T12:06:00.143Z,97282.45
2019-03-06T12:08:29.850Z,97273.42
2019-03-06T12:10:59.366Z,97269.55
2019-03-06T12:13:31.810Z,97262.48
2019-03-06T12:16:11.781Z,97255.00
2019-03-06T12:18:41.297Z,97247.66
2019-03-06T12:21:10.930Z,97241.59
2019-03-06T12:23:40.424Z,97226.23
2019-03-06T12:26:09.882Z,97230.03
2019-03-06T12:28:41.813Z,97222.39
2019-03-06T12:31:12.951Z,97215.45
2019-03-06T12:33:54.233Z,97219.47
2019-03-06T12:36:24.061Z,97207.19
2019-03-06T12:38:53.733Z,97197.88
2019-03-06T12:41:23.207Z,97195.55
2019-03-06T12:43:52.798Z,97189.02
2019-03-06T12:46:24.343Z,97196.95
2019-03-06T12:48:58.056Z,97192.67
2019-03-06T12:51:27.975Z,97185.02
2019-03-06T12:53:57.746Z,97202.80
2019-03-06T12:56:46.538Z,97196.98
2019-03-06T12:59:16.505Z,97189.47
2019-03-06T13:01:46.169Z,97190.16
2019-03-06T13:04:15.679Z,97180.55
2019-03-06T13:06:45.170Z,97172.90
2019-03-06T13:09:18.931Z,97155.83
2019-03-06T13:11:50.149Z,97154.39
2019-03-06T13:14:19.715Z,97154.97
2019-03-06T13:16:49.164Z,97154.03
2019-03-06T13:19:18.876Z,97155.45
2019-03-06T13:21:48.364Z,97150.48
2019-03-06T13:24:18.385Z,97151.02
2019-03-06T13:26:47.900Z,97150.44
2019-03-06T13:29:18.143Z,97143.42
2019-03-06T13:31:47.649Z,97151.48
2019-03-06T13:34:18.895Z,97137.14
2019-03-06T13:36:48.514Z,97133.59
2019-03-06T13:39:18.084Z,97132.09
2019-03-06T13:41:47.568Z,97136.00
2019-03-06T13:44:19.019Z,97121.09
2019-03-06T13:47:07.726Z,97122.73
2019-03-06T13:49:37.224Z,97121.27
2019-03-06T13:52:06.808Z,97117.50
2019-03-06T13:54:36.761Z,97100.25
2019-03-06T13:57:06.842Z,97112.92
2019-03-06T13:59:36.208Z,97102.96
2019-03-06T14:02:08.366Z,97109.22
2019-03-06T14:04:38.009Z,97111.86
2019-03-06T14:07:07.755Z,97105.14
2019-03-06T14:09:37.255Z,97115.66
2019-03-06T14:12:08.240Z,97105.30
2019-03-06T14:14:37.890Z,97094.24
2019-03-06T14:17:08.820Z,97101.20
2019-03-06T14:19:38.432Z,97110.13
2019-03-06T14:22:08.419Z,97109.35
2019-03-06T14:24:37.992Z,97103.42
2019-03-06T14:27:09.083Z,97104.03
2019-03-06T14:29:38.578Z,97105.20
2019-03-06T14:32:14.765Z,97102.31
2019-03-06T14:34:39.926Z,97098.55
2019-03-06T14:37:09.388Z,97092.97
2019-03-06T14:39:38.892Z,97097.63
2019-03-06T14:42:08.501Z,97098.30
2019-03-06T14:44:37.983Z,97087.06
2019-03-06T14:47:07.791Z,97082.72
2019-03-06T14:49:37.511Z,97084.41
2019-03-06T14:52:07.784Z,97083.65
2019-03-06T14:54:37.337Z,97083.14
2019-03-06T14:57:07.127Z,97082.66
2019-03-06T14:59:36.824Z,97084.83
2019-03-06T15:02:06.591Z,97084.69
2019-03-06T15:04:36.130Z,97089.97
2019-03-06T15:07:06.333Z,97079.27
2019-03-06T15:09:36.127Z,97091.86
2019-03-06T15:12:05.665Z,97085.30
2019-03-06T15:14:37.450Z,97082.58
2019-03-06T15:17:06.619Z,97083.62
2019-03-06T15:19:36.093Z,97089.44
2019-03-06T15:22:05.686Z,97093.33
2019-03-06T15:24:41.276Z,97101.33
2019-03-06T15:27:06.833Z,97089.98
2019-03-06T15:29:36.610Z,97103.19
2019-03-06T15:32:06.509Z,97102.31
2019-03-06T15:34:35.974Z,97100.78
2019-03-06T15:37:24.761Z,97088.81
2019-03-06T15:39:54.789Z,97087.05
2019-03-06T15:42:24.383Z,97079.38
2019-03-06T15:44:53.961Z,97093.00
2019-03-06T15:47:23.694Z,97084.20
2019-03-06T15:49:53.215Z,97083.59
2019-03-06T15:52:22.761Z,97098.80
2019-03-06T15:54:52.797Z,97082.67
2019-03-06T15:57:22.644Z,97083.44
2019-03-06T15:59:52.212Z,97077.86
2019-03-06T16:02:23.292Z,97083.46
2019-03-06T16:05:15.269Z,97080.28
2019-03-06T16:07:45.239Z,97076.89
2019-03-06T16:10:34.194Z,97078.28
2019-03-06T16:13:05.560Z,97084.76
2019-03-06T16:15:35.764Z,97089.14
2019-03-06T16:18:09.097Z,97084.16
2019-03-06T16:20:40.200Z,97084.52
2019-03-06T16:23:09.928Z,97092.36
2019-03-06T16:25:40.405Z,97091.23
2019-03-06T16:28:10.294Z,97087.70
2019-03-06T16:30:40.798Z,97087.48
2019-03-06T16:33:29.607Z,97086.55
2019-03-06T16:36:18.640Z,97083.05
2019-03-06T16:38:48.416Z,97084.86
2019-03-06T16:41:18.084Z,97087.00
2019-03-06T16:43:47.886Z,97084.17
2019-03-06T16:46:17.543Z,97076.36
2019-03-06T16:48:47.050Z,97078.16
2019-03-06T16:51:16.561Z,97072.36
2019-03-06T16:53:48.241Z,97064.88
2019-03-06T16:56:17.786Z,97059.00
2019-03-06T16:58:47.522Z,97056.16
2019-03-06T17:01:17.713Z,97052.20
2019-03-06T17:03:47.628Z,97038.56
2019-03-06T17:06:17.374Z,97043.20
2019-03-06T17:08:47.090Z,97031.64
2019-03-06T17:11:16.751Z,97036.53
2019-03-06T17:13:46.419Z,97037.58
2019-03-06T17:16:16.166Z,97032.30
2019-03-06T17:18:45.961Z,97028.06
2019-03-06T17:21:15.795Z,97026.31
2019-03-06T17:23:45.797Z,97024.14
2019-03-06T17:26:34.790Z,97024.82
2019-03-06T17:29:08.853Z,97021.25
2019-03-06T17:31:38.501Z,97018.34
2019-03-06T17:34:07.969Z,97009.36
2019-03-06T17:36:37.505Z,97005.59
2019-03-06T17:39:08.666Z,97005.11
2019-03-06T17:41:38.218Z,96996.29
2019-03-06T17:44:07.779Z,96993.00
2019-03-06T17:46:37.617Z,96990.34
2019-03-06T17:49:07.631Z,96990.28
2019-03-06T17:51:37.034Z,96985.28
2019-03-06T17:54:06.586Z,96986.98
2019-03-06T17:56:37.595Z,96979.61
2019-03-06T17:59:07.244Z,96975.61
2019-03-06T18:01:38.638Z,96970.43
2019-03-06T18:04:09.803Z,96967.16
2019-03-06T18:06:39.397Z,96969.23
2019-03-06T18:09:09.385Z,96964.45
2019-03-06T18:11:58.244Z,96962.97
2019-03-06T18:14:27.819Z,96958.17
2019-03-06T18:16:57.354Z,96957.06
2019-03-06T18:19:26.883Z,96950.79
2019-03-06T18:21:56.362Z,96944.80
2019-03-06T18:24:25.915Z,96939.40
2019-03-06T18:26:55.977Z,96939.91
2019-03-06T18:29:26.991Z,96939.41
2019-03-06T18:31:58.051Z,96932.30
2019-03-06T18:34:29.040Z,96925.55
2019-03-06T18:36:58.615Z,96916.43
2019-03-06T18:39:28.826Z,96916.72
2019-03-06T18:41:58.449Z,96909.22
2019-03-06T18:44:27.950Z,96911.81
2019-03-06T18:46:57.411Z,96905.25
2019-03-06T18:49:26.912Z,96914.33
2019-03-06T18:51:56.382Z,96913.23
2019-03-06T18:54:25.892Z,96905.23
2019-03-06T18:56:55.533Z,96904.22
2019-03-06T18:59:25.028Z,96907.25
2019-03-06T19:01:54.897Z,96904.83
2019-03-06T19:04:24.441Z,96894.95
2019-03-06T19:06:53.917Z,96900.34
2019-03-06T19:09:23.411Z,96899.24
2019-03-06T19:11:52.918Z,96900.27
2019-03-06T19:14:22.380Z,96901.64
2019-03-06T19:16:51.853Z,96894.77
2019-03-06T19:19:21.370Z,96895.51
2019-03-06T19:21:51.194Z,96890.16
2019-03-06T19:24:20.907Z,96885.48
2019-03-06T19:26:50.429Z,96893.01
2019-03-06T19:29:20.091Z,96886.30
2019-03-06T19:31:49.546Z,96892.95
2019-03-06T19:34:19.066Z,96888.24
2019-03-06T19:36:48.541Z,96888.22
2019-03-06T19:39:18.297Z,96890.77
2019-03-06T19:41:48.209Z,96890.03
2019-03-06T19:44:17.733Z,96880.18
2019-03-06T19:46:47.275Z,96875.23
2019-03-06T19:49:18.321Z,96875.41
2019-03-06T19:51:51.539Z,96872.07
2019-03-06T19:54:38.365Z,96861.54
2019-03-06T19:57:07.889Z,96860.17
2019-03-06T19:59:37.362Z,96857.17
2019-03-06T20:02:08.048Z,96852.95
2019-03-06T20:04:37.795Z,96850.23
2019-03-06T20:07:07.692Z,96851.69
2019-03-06T20:09:37.198Z,96851.54
2019-03-06T20:12:08.582Z,96847.31
2019-03-06T20:14:38.215Z,96842.23
2019-03-06T20:17:07.999Z,96835.59
2019-03-06T20:19:37.564Z,96842.59
2019-03-06T20:22:07.360Z,96843.05
2019-03-06T20:24:37.081Z,96844.85
2019-03-06T20:27:06.783Z,96832.79
2019-03-06T20:29:36.279Z,96846.27
2019-03-06T20:32:25.415Z,96838.46
2019-03-06T20:34:54.898Z,96840.28
2019-03-06T20:37:25.201Z,96838.16
2019-03-06T20:39:54.841Z,96842.65
2019-03-06T20:42:24.349Z,96837.11
2019-03-06T20:44:54.021Z,96825.91
2019-03-06T20:47:23.510Z,96819.79
2019-03-06T20:49:52.966Z,96819.94
2019-03-06T20:52:22.473Z,96814.09
2019-03-06T20:54:51.992Z,96819.92
2019-03-06T20:57:40.759Z,96823.06
2019-03-06T21:02:54.237Z,96823.02
2019-03-06T21:05:23.901Z,96825.61
2019-03-06T21:07:53.376Z,96824.75
2019-03-06T21:10:22.965Z,96835.06
2019-03-06T21:12:52.821Z,96831.04
2019-03-06T21:15:23.681Z,96839.55
2019-03-06T21:17:53.314Z,96851.70
2019-03-06T21:20:24.208Z,96845.81
2019-03-06T21:22:53.689Z,96843.58
2019-03-06T21:25:23.819Z,96851.27
2019-03-06T21:27:53.580Z,96847.88
2019-03-06T21:30:26.386Z,96839.92
2019-03-06T21:32:55.876Z,96845.55
2019-03-06T21:35:25.639Z,96847.88
2019-03-06T21:37:55.127Z,96843.80
2019-03-06T21:40:26.789Z,96837.75
2019-03-06T21:43:15.572Z,96838.42
2019-03-06T21:45:45.174Z,96835.84
2019-03-06T21:48:14.649Z,96827.19
2019-03-06T21:50:44.110Z,96824.52
2019-03-06T21:53:13.916Z,96828.10
2019-03-06T21:55:43.374Z,96825.64
2019-03-06T21:58:12.843Z,96821.41
2019-03-06T22:00:42.350Z,96815.42
2019-03-06T22:03:12.270Z,96804.37
2019-03-06T22:05:41.747Z,96808.47
2019-03-06T22:08:11.414Z,96805.52
2019-03-06T22:10:40.895Z,96803.52
2019-03-06T22:13:10.524Z,96812.02
2019-03-06T22:15:40.029Z,96807.84
2019-03-06T22:18:09.498Z,96804.42
2019-03-06T22:20:38.951Z,96793.16
2019-03-06T22:23:08.450Z,96791.50
2019-03-06T22:25:37.911Z,96784.16
2019-03-06T22:28:07.391Z,96780.98
2019-03-06T22:30:36.964Z,96773.53
2019-03-06T22:33:06.466Z,96764.76
2019-03-06T22:35:36.017Z,96749.77
2019-03-06T22:38:07.048Z,96750.70
2019-03-06T22:40:36.512Z,96753.84
2019-03-06T22:43:06.010Z,96754.95
2019-03-06T22:45:43.034Z,96741.35
2019-03-06T22:48:12.491Z,96734.22
2019-03-06T22:50:41.982Z,96737.29
2019-03-06T22:53:11.509Z,96735.78
2019-03-06T22:55:40.970Z,96734.33
2019-03-06T22:58:10.534Z,96733.61
2019-03-06T23:00:46.209Z,96726.53
2019-03-06T23:03:35.344Z,96731.55
2019-03-06T23:06:06.085Z,96725.58
2019-03-06T23:08:35.587Z,96725.63
2019-03-06T23:11:05.124Z,96716.30
2019-03-06T23:13:53.913Z,96709.66
2019-03-06T23:16:23.561Z,96703.44
2019-03-06T23:18:53.065Z,96700.77
2019-03-06T23:21:23.206Z,96697.67
2019-03-06T23:23:52.688Z,96693.64
2019-03-06T23:26:22.177Z,96688.78
2019-03-06T23:28:51.680Z,96688.45
2019-03-06T23:31:21.134Z,96675.70
2019-03-06T23:33:53.377Z,96672.72
2019-03-06T23:36:22.897Z,96660.07
2019-03-06T23:38:52.374Z,96666.09
2019-03-06T23:41:21.867Z,96661.08
2019-03-06T23:43:51.514Z,96652.49
2019-03-06T23:46:20.999Z,96649.19
2019-03-06T23:48:50.831Z,96643.73
2019-03-06T23:51:21.955Z,96643.05
2019-03-06T23:53:52.590Z,96631.31
2019-03-06T23:56:22.053Z,96632.51
2019-03-06T23:58:51.549Z,96627.47
